createdAt,value
2018-07-11T00:00:13.915Z,0.00
2018-07-11T00:01:14.044Z,0.00
2018-07-11T00:02:13.885Z,0.00
2018-07-11T00:03:13.891Z,0.00
2018-07-11T00:04:13.861Z,0.00
2018-07-11T00:05:13.860Z,0.00
2018-07-11T00:06:13.856Z,0.00
2018-07-11T00:07:13.945Z,0.00
2018-07-11T00:08:13.821Z,0.00
2018-07-11T00:09:13.806Z,0.00
2018-07-11T00:10:13.792Z,0.00
2018-07-11T00:11:13.891Z,0.00
2018-07-11T00:12:13.731Z,0.00
2018-07-11T00:13:13.768Z,0.00
2018-07-11T00:14:13.748Z,0.00
2018-07-11T00:15:13.760Z,0.00
2018-07-11T00:16:13.757Z,0.00
2018-07-11T00:17:13.717Z,0.00
2018-07-11T00:18:13.706Z,0.00
2018-07-11T00:19:13.700Z,0.00
2018-07-11T00:20:13.688Z,0.00
2018-07-11T00:21:13.703Z,0.00
2018-07-11T00:22:13.682Z,0.00
2018-07-11T00:23:13.603Z,0.00
2018-07-11T00:24:13.636Z,0.00
2018-07-11T00:25:13.591Z,0.00
2018-07-11T00:26:13.620Z,0.00
2018-07-11T00:27:13.652Z,0.00
2018-07-11T00:28:13.605Z,0.00
2018-07-11T00:29:13.581Z,0.00
2018-07-11T00:30:13.574Z,0.00
2018-07-11T00:31:13.565Z,0.00
2018-07-11T00:32:13.576Z,0.00
2018-07-11T00:33:13.548Z,0.00
2018-07-11T00:34:13.534Z,0.00
2018-07-11T00:35:13.518Z,0.00
2018-07-11T00:36:13.507Z,0.00
2018-07-11T00:37:13.637Z,0.00
2018-07-11T00:38:13.488Z,0.00
2018-07-11T00:39:13.493Z,0.00
2018-07-11T00:40:13.423Z,0.00
2018-07-11T00:41:13.456Z,0.00
2018-07-11T00:42:13.463Z,0.00
2018-07-11T00:43:13.391Z,0.00
2018-07-11T00:44:13.415Z,0.00
2018-07-11T00:45:13.412Z,0.00
2018-07-11T00:46:13.402Z,0.00
2018-07-11T00:47:13.421Z,0.00
2018-07-11T00:48:13.378Z,0.00
2018-07-11T00:49:13.372Z,0.00
2018-07-11T00:50:13.355Z,0.00
2018-07-11T00:51:13.353Z,0.00
2018-07-11T00:52:13.360Z,0.00
2018-07-11T00:53:13.321Z,0.00
2018-07-11T00:54:13.314Z,0.00
2018-07-11T00:55:13.302Z,0.00
2018-07-11T00:56:13.285Z,0.00
2018-07-11T00:57:13.304Z,0.00
2018-07-11T00:58:13.270Z,0.00
2018-07-11T00:59:13.254Z,0.00
2018-07-11T01:00:13.206Z,0.00
2018-07-11T01:01:13.192Z,0.00
2018-07-11T01:02:13.247Z,0.00
2018-07-11T01:03:13.216Z,0.00
2018-07-11T01:04:13.250Z,0.00
2018-07-11T01:05:13.191Z,0.00
2018-07-11T01:06:13.191Z,0.00
2018-07-11T01:07:13.200Z,0.00
2018-07-11T01:08:13.158Z,0.00
2018-07-11T01:09:13.145Z,0.00
2018-07-11T01:10:13.141Z,0.00
2018-07-11T01:11:13.128Z,0.00
2018-07-11T01:12:13.096Z,0.00
2018-07-11T01:13:13.101Z,0.00
2018-07-11T01:14:13.121Z,0.00
2018-07-11T01:15:13.089Z,0.00
2018-07-11T01:16:13.077Z,0.00
2018-07-11T01:17:13.092Z,0.00
2018-07-11T01:18:13.045Z,0.00
2018-07-11T01:19:13.036Z,0.00
2018-07-11T01:20:13.056Z,0.00
2018-07-11T01:21:13.016Z,0.00
2018-07-11T01:22:13.027Z,0.00
2018-07-11T01:23:13.004Z,0.00
2018-07-11T01:24:12.985Z,0.00
2018-07-11T01:25:12.977Z,0.00
2018-07-11T01:26:12.955Z,0.00
2018-07-11T01:27:12.938Z,0.00
2018-07-11T01:28:12.894Z,0.00
2018-07-11T01:29:12.943Z,0.00
2018-07-11T01:30:12.913Z,0.00
2018-07-11T01:31:12.906Z,0.00
2018-07-11T01:32:12.874Z,0.00
2018-07-11T01:33:12.888Z,0.00
2018-07-11T01:34:12.881Z,0.00
2018-07-11T01:35:12.872Z,0.00
2018-07-11T01:36:12.806Z,0.00
2018-07-11T01:37:12.859Z,0.00
2018-07-11T01:38:12.789Z,0.00
2018-07-11T01:39:12.823Z,0.00
2018-07-11T01:40:12.811Z,0.00
2018-07-11T01:41:12.814Z,0.00
2018-07-11T01:42:12.814Z,0.00
2018-07-11T01:43:12.772Z,0.00
2018-07-11T01:44:12.763Z,0.00
2018-07-11T01:45:12.751Z,0.00
2018-07-11T01:46:12.708Z,0.00
2018-07-11T01:47:12.756Z,0.00
2018-07-11T01:48:12.727Z,0.00
2018-07-11T01:49:12.705Z,0.00
2018-07-11T01:50:12.697Z,0.00
2018-07-11T01:51:12.681Z,0.00
2018-07-11T01:52:12.681Z,0.00
2018-07-11T01:53:12.659Z,0.00
2018-07-11T01:54:12.668Z,0.00
2018-07-11T01:55:12.644Z,0.00
2018-07-11T01:56:12.630Z,0.00
2018-07-11T01:57:12.581Z,0.00
2018-07-11T01:58:12.627Z,0.00
2018-07-11T01:59:12.551Z,0.00
2018-07-11T02:00:12.583Z,0.00
2018-07-11T02:01:12.575Z,0.00
2018-07-11T02:02:12.524Z,0.00
2018-07-11T02:03:12.700Z,0.00
2018-07-11T02:04:12.538Z,0.00
2018-07-11T02:05:12.529Z,0.00
2018-07-11T02:06:12.518Z,0.00
2018-07-11T02:07:12.515Z,0.00
2018-07-11T02:08:12.515Z,0.00
2018-07-11T02:09:12.550Z,0.00
2018-07-11T02:10:12.474Z,0.00
2018-07-11T02:11:12.474Z,0.00
2018-07-11T02:12:12.459Z,0.00
2018-07-11T02:13:12.533Z,0.00
2018-07-11T02:14:12.427Z,0.00
2018-07-11T02:15:12.433Z,0.00
2018-07-11T02:16:12.409Z,0.00
2018-07-11T02:17:12.396Z,0.00
2018-07-11T02:18:12.407Z,0.00
2018-07-11T02:19:12.379Z,0.00
2018-07-11T02:20:12.366Z,0.00
2018-07-11T02:21:12.324Z,0.00
2018-07-11T02:22:12.307Z,0.00
2018-07-11T02:23:12.319Z,0.00
2018-07-11T02:24:12.325Z,0.00
2018-07-11T02:25:12.317Z,0.00
2018-07-11T02:26:12.302Z,0.00
2018-07-11T02:27:12.287Z,0.00
2018-07-11T02:28:12.299Z,0.00
2018-07-11T02:29:12.271Z,0.00
2018-07-11T02:30:12.253Z,0.00
2018-07-11T02:31:12.245Z,0.00
2018-07-11T02:32:12.240Z,0.00
2018-07-11T02:33:12.203Z,0.00
2018-07-11T02:34:12.208Z,0.00
2018-07-11T02:35:12.195Z,0.00
2018-07-11T02:36:12.145Z,0.00
2018-07-11T02:37:12.188Z,0.00
2018-07-11T02:38:12.213Z,0.00
2018-07-11T02:39:12.151Z,0.00
2018-07-11T02:40:12.144Z,0.00
2018-07-11T02:41:12.136Z,0.00
2018-07-11T02:42:12.129Z,0.00
2018-07-11T02:43:12.113Z,0.00
2018-07-11T02:44:12.126Z,0.00
2018-07-11T02:45:12.089Z,0.00
2018-07-11T02:46:12.077Z,0.00
2018-07-11T02:47:12.072Z,0.00
2018-07-11T02:48:12.055Z,0.00
2018-07-11T02:49:12.069Z,0.00
2018-07-11T02:50:12.046Z,0.00
2018-07-11T02:51:12.025Z,0.00
2018-07-11T02:52:12.010Z,0.00
2018-07-11T02:53:12.000Z,0.00
2018-07-11T02:54:11.965Z,0.00
2018-07-11T02:55:11.978Z,0.00
2018-07-11T02:56:11.989Z,0.00
2018-07-11T02:57:11.955Z,0.00
2018-07-11T02:58:11.948Z,0.00
2018-07-11T02:59:11.963Z,0.00
2018-07-11T03:00:11.946Z,0.00
2018-07-11T03:01:11.921Z,0.00
2018-07-11T03:02:11.924Z,0.00
2018-07-11T03:03:11.888Z,0.00
2018-07-11T03:04:11.903Z,0.00
2018-07-11T03:05:11.867Z,0.00
2018-07-11T03:06:11.812Z,0.00
2018-07-11T03:07:11.862Z,0.00
2018-07-11T03:08:11.838Z,0.00
2018-07-11T03:09:11.846Z,0.00
2018-07-11T03:10:11.815Z,0.00
2018-07-11T03:11:11.801Z,0.00
2018-07-11T03:12:11.809Z,0.00
2018-07-11T03:13:11.789Z,0.00
2018-07-11T03:14:11.821Z,0.00
2018-07-11T03:15:11.758Z,0.00
2018-07-11T03:16:11.748Z,0.00
2018-07-11T03:17:11.742Z,0.00
2018-07-11T03:18:11.734Z,0.00
2018-07-11T03:19:11.750Z,0.00
2018-07-11T03:20:11.717Z,0.00
2018-07-11T03:21:11.695Z,0.00
2018-07-11T03:22:11.686Z,5.62
2018-07-11T03:23:11.681Z,5.62
2018-07-11T03:24:11.679Z,5.62
2018-07-11T03:25:11.651Z,5.62
2018-07-11T03:26:11.644Z,5.62
2018-07-11T03:27:11.627Z,5.62
2018-07-11T03:28:11.617Z,5.62
2018-07-11T03:29:11.638Z,5.62
2018-07-11T03:30:11.621Z,5.62
2018-07-11T03:31:11.580Z,5.62
2018-07-11T03:32:11.570Z,11.25
2018-07-11T03:33:11.564Z,11.25
2018-07-11T03:34:11.570Z,11.25
2018-07-11T03:35:11.544Z,11.25
2018-07-11T03:36:11.548Z,11.25
2018-07-11T03:37:11.520Z,11.25
2018-07-11T03:38:11.513Z,16.88
2018-07-11T03:39:11.522Z,16.88
2018-07-11T03:40:11.484Z,16.88
2018-07-11T03:41:11.492Z,16.88
2018-07-11T03:42:11.459Z,22.50
2018-07-11T03:43:11.454Z,22.50
2018-07-11T03:44:11.471Z,22.50
2018-07-11T03:45:11.439Z,28.12
2018-07-11T03:46:11.423Z,28.12
2018-07-11T03:47:11.422Z,28.12
2018-07-11T03:48:11.396Z,28.12
2018-07-11T03:49:11.404Z,28.12
2018-07-11T03:50:11.381Z,33.75
2018-07-11T03:51:11.319Z,33.75
2018-07-11T03:52:11.310Z,33.75
2018-07-11T03:53:11.348Z,33.75
2018-07-11T03:54:11.397Z,39.38
2018-07-11T03:55:11.319Z,39.38
2018-07-11T03:56:11.312Z,39.38
2018-07-11T03:57:11.299Z,39.38
2018-07-11T03:58:11.295Z,45.00
2018-07-11T03:59:11.335Z,45.00
2018-07-11T04:00:11.271Z,45.00
2018-07-11T04:01:11.253Z,45.00
2018-07-11T04:02:11.244Z,50.62
2018-07-11T04:03:11.234Z,50.62
2018-07-11T04:04:11.247Z,50.62
2018-07-11T04:05:11.285Z,50.62
2018-07-11T04:06:11.204Z,56.25
2018-07-11T04:07:11.187Z,56.25
2018-07-11T04:08:11.174Z,56.25
2018-07-11T04:09:11.295Z,61.88
2018-07-11T04:10:11.182Z,61.88
2018-07-11T04:11:11.146Z,61.88
2018-07-11T04:12:11.141Z,61.88
2018-07-11T04:13:11.128Z,61.88
2018-07-11T04:14:11.137Z,67.50
2018-07-11T04:15:11.064Z,67.50
2018-07-11T04:16:11.095Z,61.88
2018-07-11T04:17:11.074Z,61.88
2018-07-11T04:18:11.071Z,61.88
2018-07-11T04:19:11.128Z,56.25
2018-07-11T04:20:11.066Z,56.25
2018-07-11T04:21:11.040Z,56.25
2018-07-11T04:22:10.987Z,50.62
2018-07-11T04:23:11.018Z,50.62
2018-07-11T04:24:10.997Z,50.62
2018-07-11T04:25:11.027Z,50.62
2018-07-11T04:26:10.980Z,56.25
2018-07-11T04:27:10.963Z,56.25
2018-07-11T04:28:10.957Z,56.25
2018-07-11T04:29:10.947Z,61.88
2018-07-11T04:30:10.952Z,67.50
2018-07-11T04:31:10.932Z,61.88
2018-07-11T04:32:10.889Z,67.50
2018-07-11T04:33:10.898Z,67.50
2018-07-11T04:34:10.888Z,67.50
2018-07-11T04:35:10.906Z,67.50
2018-07-11T04:36:10.824Z,67.50
2018-07-11T04:37:10.864Z,78.75
2018-07-11T04:38:10.849Z,78.75
2018-07-11T04:39:10.834Z,78.75
2018-07-11T04:40:10.849Z,78.75
2018-07-11T04:41:10.810Z,73.12
2018-07-11T04:42:10.805Z,73.12
2018-07-11T04:43:10.797Z,78.75
2018-07-11T04:44:10.793Z,90.00
2018-07-11T04:45:10.792Z,84.38
2018-07-11T04:46:10.756Z,84.38
2018-07-11T04:47:10.746Z,84.38
2018-07-11T04:48:10.721Z,84.38
2018-07-11T04:49:10.738Z,84.38
2018-07-11T04:50:10.733Z,90.00
2018-07-11T04:51:10.699Z,90.00
2018-07-11T04:52:10.692Z,84.38
2018-07-11T04:53:10.681Z,78.75
2018-07-11T04:54:10.624Z,84.38
2018-07-11T04:55:10.686Z,90.00
2018-07-11T04:56:10.648Z,95.62
2018-07-11T04:57:10.635Z,90.00
2018-07-11T04:58:10.713Z,78.75
2018-07-11T04:59:10.614Z,61.88
2018-07-11T05:00:10.632Z,50.62
2018-07-11T05:01:10.555Z,45.00
2018-07-11T05:02:10.548Z,45.00
2018-07-11T05:03:10.572Z,50.62
2018-07-11T05:04:10.566Z,56.25
2018-07-11T05:05:10.576Z,61.88
2018-07-11T05:06:10.564Z,73.12
2018-07-11T05:07:10.527Z,73.12
2018-07-11T05:08:10.519Z,67.50
2018-07-11T05:09:10.504Z,90.00
2018-07-11T05:10:10.520Z,78.75
2018-07-11T05:11:10.503Z,61.88
2018-07-11T05:12:10.524Z,45.00
2018-07-11T05:13:10.463Z,45.00
2018-07-11T05:14:10.455Z,50.62
2018-07-11T05:15:10.457Z,50.62
2018-07-11T05:16:10.444Z,50.62
2018-07-11T05:17:10.416Z,45.00
2018-07-11T05:18:10.431Z,45.00
2018-07-11T05:19:10.407Z,45.00
2018-07-11T05:20:10.363Z,50.62
2018-07-11T05:21:10.377Z,50.62
2018-07-11T05:22:10.360Z,56.25
2018-07-11T05:23:10.347Z,61.88
2018-07-11T05:24:10.338Z,67.50
2018-07-11T05:25:10.362Z,73.12
2018-07-11T05:26:10.329Z,90.00
2018-07-11T05:27:10.305Z,118.12
2018-07-11T05:28:10.308Z,129.38
2018-07-11T05:29:10.300Z,135.00
2018-07-11T05:30:10.300Z,146.25
2018-07-11T05:31:10.274Z,151.88
2018-07-11T05:32:10.251Z,151.88
2018-07-11T05:33:10.241Z,146.25
2018-07-11T05:34:10.229Z,129.38
2018-07-11T05:35:10.251Z,112.50
2018-07-11T05:36:10.218Z,90.00
2018-07-11T05:37:10.200Z,84.38
2018-07-11T05:38:10.187Z,84.38
2018-07-11T05:39:10.182Z,90.00
2018-07-11T05:40:10.185Z,106.88
2018-07-11T05:41:10.159Z,112.50
2018-07-11T05:42:10.148Z,123.75
2018-07-11T05:43:10.131Z,146.25
2018-07-11T05:44:10.120Z,168.75
2018-07-11T05:45:10.152Z,168.75
2018-07-11T05:46:10.098Z,174.38
2018-07-11T05:47:10.049Z,168.75
2018-07-11T05:48:10.131Z,174.38
2018-07-11T05:49:10.071Z,163.12
2018-07-11T05:50:10.075Z,140.62
2018-07-11T05:51:10.057Z,129.38
2018-07-11T05:52:10.057Z,123.75
2018-07-11T05:53:10.023Z,118.12
2018-07-11T05:54:10.010Z,112.50
2018-07-11T05:55:09.989Z,106.88
2018-07-11T05:56:10.003Z,101.25
2018-07-11T05:57:09.979Z,106.88
2018-07-11T05:58:09.973Z,101.25
2018-07-11T05:59:09.961Z,95.62
2018-07-11T06:00:09.966Z,90.00
2018-07-11T06:01:09.971Z,90.00
2018-07-11T06:02:09.930Z,90.00
2018-07-11T06:03:09.919Z,95.62
2018-07-11T06:04:09.911Z,101.25
2018-07-11T06:05:10.004Z,101.25
2018-07-11T06:06:09.879Z,101.25
2018-07-11T06:07:09.880Z,95.62
2018-07-11T06:08:09.870Z,90.00
2018-07-11T06:09:09.863Z,90.00
2018-07-11T06:10:09.840Z,90.00
2018-07-11T06:11:09.892Z,95.62
2018-07-11T06:12:09.819Z,95.62
2018-07-11T06:13:09.809Z,84.38
2018-07-11T06:14:09.793Z,78.75
2018-07-11T06:15:09.800Z,78.75
2018-07-11T06:16:09.796Z,78.75
2018-07-11T06:17:09.767Z,84.38
2018-07-11T06:18:09.760Z,90.00
2018-07-11T06:19:09.743Z,90.00
2018-07-11T06:20:09.733Z,95.62
2018-07-11T06:21:09.746Z,106.88
2018-07-11T06:22:09.705Z,112.50
2018-07-11T06:23:09.707Z,106.88
2018-07-11T06:24:09.644Z,106.88
2018-07-11T06:25:09.679Z,112.50
2018-07-11T06:26:09.704Z,118.12
2018-07-11T06:27:09.656Z,118.12
2018-07-11T06:28:09.721Z,135.00
2018-07-11T06:29:09.632Z,140.62
2018-07-11T06:30:09.625Z,140.62
2018-07-11T06:31:09.635Z,146.25
2018-07-11T06:32:09.604Z,151.88
2018-07-11T06:33:09.589Z,157.50
2018-07-11T06:34:09.536Z,168.75
2018-07-11T06:35:09.568Z,163.12
2018-07-11T06:36:09.616Z,174.38
2018-07-11T06:37:09.545Z,174.38
2018-07-11T06:38:09.543Z,174.38
2018-07-11T06:39:09.532Z,163.12
2018-07-11T06:40:09.511Z,157.50
2018-07-11T06:41:09.527Z,146.25
2018-07-11T06:42:09.491Z,135.00
2018-07-11T06:43:09.505Z,129.38
2018-07-11T06:44:09.479Z,140.62
2018-07-11T06:45:09.476Z,146.25
2018-07-11T06:46:09.465Z,151.88
2018-07-11T06:47:09.436Z,151.88
2018-07-11T06:48:09.423Z,163.12
2018-07-11T06:49:09.410Z,174.38
2018-07-11T06:50:09.405Z,191.25
2018-07-11T06:51:09.413Z,208.12
2018-07-11T06:52:09.417Z,225.00
2018-07-11T06:53:09.369Z,230.62
2018-07-11T06:54:09.317Z,236.25
2018-07-11T06:55:09.346Z,247.50
2018-07-11T06:56:09.402Z,275.62
2018-07-11T06:57:09.321Z,281.25
2018-07-11T06:58:09.281Z,286.88
2018-07-11T06:59:09.309Z,281.25
2018-07-11T07:00:09.247Z,281.25
2018-07-11T07:01:09.308Z,286.88
2018-07-11T07:02:09.275Z,275.62
2018-07-11T07:03:09.261Z,281.25
2018-07-11T07:04:09.237Z,298.12
2018-07-11T07:05:09.237Z,337.50
2018-07-11T07:06:09.266Z,405.00
2018-07-11T07:07:09.237Z,444.38
2018-07-11T07:08:09.222Z,421.88
2018-07-11T07:09:09.196Z,551.25
2018-07-11T07:10:09.145Z,888.75
2018-07-11T07:11:09.175Z,894.38
2018-07-11T07:12:09.193Z,669.38
2018-07-11T07:13:09.152Z,635.62
2018-07-11T07:14:09.145Z,568.12
2018-07-11T07:15:09.128Z,635.62
2018-07-11T07:16:09.119Z,1215.00
2018-07-11T07:17:09.134Z,607.50
2018-07-11T07:18:09.092Z,568.12
2018-07-11T07:19:09.088Z,573.75
2018-07-11T07:20:09.097Z,607.50
2018-07-11T07:21:09.067Z,691.88
2018-07-11T07:22:09.079Z,663.75
2018-07-11T07:23:09.040Z,1271.25
2018-07-11T07:24:09.029Z,781.88
2018-07-11T07:25:09.015Z,742.50
2018-07-11T07:26:09.009Z,883.12
2018-07-11T07:27:09.015Z,1473.75
2018-07-11T07:28:08.982Z,1850.62
2018-07-11T07:29:09.006Z,1479.38
2018-07-11T07:30:08.983Z,1794.38
2018-07-11T07:31:08.953Z,1794.38
2018-07-11T07:32:08.969Z,1811.25
2018-07-11T07:33:08.946Z,1845.00
2018-07-11T07:34:08.917Z,1839.38
2018-07-11T07:35:08.907Z,1771.88
2018-07-11T07:36:08.928Z,1805.62
2018-07-11T07:37:08.912Z,1828.12
2018-07-11T07:38:08.878Z,1800.00
2018-07-11T07:39:08.877Z,1918.12
2018-07-11T07:40:08.853Z,1980.00
2018-07-11T07:41:08.849Z,1935.00
2018-07-11T07:42:08.860Z,1890.00
2018-07-11T07:43:08.855Z,1918.12
2018-07-11T07:44:08.814Z,1906.88
2018-07-11T07:45:08.801Z,1918.12
2018-07-11T07:46:08.794Z,1867.50
2018-07-11T07:47:08.803Z,1788.75
2018-07-11T07:48:08.743Z,1783.12
2018-07-11T07:49:08.757Z,1833.75
2018-07-11T07:50:08.752Z,1878.75
2018-07-11T07:51:08.737Z,1929.38
2018-07-11T07:52:08.755Z,1890.00
2018-07-11T07:53:08.689Z,1890.00
2018-07-11T07:54:08.717Z,1923.75
2018-07-11T07:55:08.695Z,978.75
2018-07-11T07:56:08.700Z,1794.38
2018-07-11T07:57:08.864Z,545.62
2018-07-11T07:58:08.667Z,472.50
2018-07-11T07:59:08.657Z,500.62
2018-07-11T08:00:08.649Z,1265.62
2018-07-11T08:01:08.641Z,1057.50
2018-07-11T08:02:08.651Z,635.62
2018-07-11T08:03:08.701Z,624.38
2018-07-11T08:04:08.602Z,1063.12
2018-07-11T08:05:08.591Z,1929.38
2018-07-11T08:06:08.598Z,1608.75
2018-07-11T08:07:08.638Z,1929.38
2018-07-11T08:08:08.522Z,1845.00
2018-07-11T08:09:08.562Z,1935.00
2018-07-11T08:10:08.551Z,1085.62
2018-07-11T08:11:08.532Z,939.38
2018-07-11T08:12:08.516Z,1901.25
2018-07-11T08:13:08.509Z,1918.12
2018-07-11T08:14:08.501Z,1901.25
2018-07-11T08:15:08.493Z,1974.38
2018-07-11T08:16:08.486Z,2008.12
2018-07-11T08:17:08.488Z,1940.62
2018-07-11T08:18:08.524Z,2008.12
2018-07-11T08:19:08.444Z,1985.62
2018-07-11T08:20:08.433Z,2002.50
2018-07-11T08:21:08.429Z,1985.62
2018-07-11T08:22:08.437Z,2002.50
2018-07-11T08:23:08.407Z,2047.50
2018-07-11T08:24:08.411Z,2002.50
2018-07-11T08:25:08.394Z,1923.75
2018-07-11T08:26:08.375Z,1929.38
2018-07-11T08:27:08.406Z,1918.12
2018-07-11T08:28:08.351Z,1850.62
2018-07-11T08:29:08.344Z,1805.62
2018-07-11T08:30:08.330Z,1805.62
2018-07-11T08:31:08.327Z,1850.62
2018-07-11T08:32:08.334Z,1861.88
2018-07-11T08:33:08.299Z,1417.50
2018-07-11T08:34:08.289Z,911.25
2018-07-11T08:35:08.371Z,652.50
2018-07-11T08:36:08.227Z,624.38
2018-07-11T08:37:08.296Z,618.75
2018-07-11T08:38:08.246Z,618.75
2018-07-11T08:39:08.232Z,624.38
2018-07-11T08:40:08.221Z,618.75
2018-07-11T08:41:08.220Z,601.88
2018-07-11T08:42:08.294Z,601.88
2018-07-11T08:43:08.188Z,601.88
2018-07-11T08:44:08.178Z,624.38
2018-07-11T08:45:08.178Z,630.00
2018-07-11T08:46:08.160Z,618.75
2018-07-11T08:47:08.144Z,613.12
2018-07-11T08:48:08.213Z,607.50
2018-07-11T08:49:08.131Z,613.12
2018-07-11T08:50:08.121Z,618.75
2018-07-11T08:51:08.069Z,635.62
2018-07-11T08:52:08.099Z,601.88
2018-07-11T08:53:08.108Z,568.12
2018-07-11T08:54:08.073Z,562.50
2018-07-11T08:55:08.106Z,568.12
2018-07-11T08:56:08.047Z,568.12
2018-07-11T08:57:08.039Z,568.12
2018-07-11T08:58:08.048Z,568.12
2018-07-11T08:59:08.023Z,556.88
2018-07-11T09:00:08.120Z,562.50
2018-07-11T09:01:08.768Z,556.88
2018-07-11T09:02:08.063Z,528.75
2018-07-11T09:03:07.997Z,523.12
2018-07-11T09:04:08.111Z,517.50
2018-07-11T09:05:07.954Z,517.50
2018-07-11T09:06:08.083Z,528.75
2018-07-11T09:07:07.973Z,523.12
2018-07-11T09:08:07.959Z,545.62
2018-07-11T09:09:07.922Z,568.12
2018-07-11T09:10:07.906Z,585.00
2018-07-11T09:11:07.939Z,551.25
2018-07-11T09:12:07.886Z,540.00
2018-07-11T09:13:07.911Z,540.00
2018-07-11T09:14:07.858Z,517.50
2018-07-11T09:15:07.850Z,551.25
2018-07-11T09:16:07.834Z,556.88
2018-07-11T09:17:07.832Z,495.00
2018-07-11T09:18:07.838Z,433.12
2018-07-11T09:19:07.823Z,427.50
2018-07-11T09:20:07.795Z,433.12
2018-07-11T09:21:07.795Z,416.25
2018-07-11T09:22:07.779Z,365.62
2018-07-11T09:23:07.793Z,382.50
2018-07-11T09:24:07.783Z,365.62
2018-07-11T09:25:07.736Z,348.75
2018-07-11T09:26:07.736Z,348.75
2018-07-11T09:27:07.672Z,348.75
2018-07-11T09:28:07.728Z,354.38
2018-07-11T09:29:07.695Z,354.38
2018-07-11T09:30:07.687Z,354.38
2018-07-11T09:31:07.676Z,360.00
2018-07-11T09:32:07.672Z,360.00
2018-07-11T09:33:07.673Z,371.25
2018-07-11T09:34:07.655Z,376.88
2018-07-11T09:35:07.643Z,371.25
2018-07-11T09:36:07.615Z,371.25
2018-07-11T09:37:07.607Z,388.12
2018-07-11T09:38:07.598Z,393.75
2018-07-11T09:39:07.606Z,405.00
2018-07-11T09:40:07.573Z,405.00
2018-07-11T09:41:07.568Z,416.25
2018-07-11T09:42:07.559Z,416.25
2018-07-11T09:43:07.539Z,416.25
2018-07-11T09:44:07.575Z,416.25
2018-07-11T09:45:07.519Z,421.88
2018-07-11T09:46:07.514Z,450.00
2018-07-11T09:47:07.511Z,461.25
2018-07-11T09:48:07.485Z,450.00
2018-07-11T09:49:07.584Z,444.38
2018-07-11T09:50:07.469Z,438.75
2018-07-11T09:51:07.458Z,416.25
2018-07-11T09:52:07.455Z,427.50
2018-07-11T09:53:07.445Z,450.00
2018-07-11T09:54:07.444Z,478.12
2018-07-11T09:55:07.416Z,495.00
2018-07-11T09:56:07.397Z,483.75
2018-07-11T09:57:07.388Z,540.00
2018-07-11T09:58:07.378Z,562.50
2018-07-11T09:59:07.466Z,590.62
2018-07-11T10:00:07.367Z,585.00
2018-07-11T10:01:07.396Z,596.25
2018-07-11T10:02:07.335Z,601.88
2018-07-11T10:03:07.290Z,596.25
2018-07-11T10:04:07.341Z,590.62
2018-07-11T10:05:07.370Z,579.38
2018-07-11T10:06:07.294Z,573.75
2018-07-11T10:07:07.281Z,579.38
2018-07-11T10:08:07.278Z,573.75
2018-07-11T10:09:07.289Z,556.88
2018-07-11T10:10:07.252Z,528.75
2018-07-11T10:11:07.247Z,528.75
2018-07-11T10:12:07.235Z,495.00
2018-07-11T10:13:07.224Z,461.25
2018-07-11T10:14:07.230Z,461.25
2018-07-11T10:15:07.165Z,495.00
2018-07-11T10:16:07.184Z,478.12
2018-07-11T10:17:07.176Z,472.50
2018-07-11T10:18:07.170Z,489.38
2018-07-11T10:19:07.188Z,506.25
2018-07-11T10:20:07.191Z,517.50
2018-07-11T10:21:07.128Z,545.62
2018-07-11T10:22:07.119Z,562.50
2018-07-11T10:23:07.118Z,573.75
2018-07-11T10:24:07.083Z,601.88
2018-07-11T10:25:07.090Z,624.38
2018-07-11T10:26:07.080Z,630.00
2018-07-11T10:27:07.070Z,658.12
2018-07-11T10:28:07.061Z,680.62
2018-07-11T10:29:07.065Z,669.38
2018-07-11T10:30:07.033Z,641.25
2018-07-11T10:31:07.028Z,601.88
2018-07-11T10:32:07.010Z,601.88
2018-07-11T10:33:07.006Z,596.25
2018-07-11T10:34:07.019Z,585.00
2018-07-11T10:35:06.979Z,568.12
2018-07-11T10:36:06.972Z,601.88
2018-07-11T10:37:06.958Z,630.00
2018-07-11T10:38:06.949Z,675.00
2018-07-11T10:39:06.972Z,714.38
2018-07-11T10:40:06.928Z,731.25
2018-07-11T10:41:06.925Z,742.50
2018-07-11T10:42:06.910Z,770.62
2018-07-11T10:43:06.913Z,787.50
2018-07-11T10:44:06.909Z,776.25
2018-07-11T10:45:06.879Z,765.00
2018-07-11T10:46:06.830Z,765.00
2018-07-11T10:47:06.862Z,776.25
2018-07-11T10:48:06.802Z,781.88
2018-07-11T10:49:06.813Z,781.88
2018-07-11T10:50:06.837Z,753.75
2018-07-11T10:51:06.817Z,714.38
2018-07-11T10:52:06.850Z,697.50
2018-07-11T10:53:06.801Z,686.25
2018-07-11T10:54:06.804Z,680.62
2018-07-11T10:55:06.766Z,691.88
2018-07-11T10:56:06.870Z,691.88
2018-07-11T10:57:06.755Z,686.25
2018-07-11T10:58:06.821Z,680.62
2018-07-11T10:59:06.707Z,669.38
2018-07-11T11:00:06.713Z,658.12
2018-07-11T11:01:06.706Z,658.12
2018-07-11T11:02:06.698Z,652.50
2018-07-11T11:03:06.701Z,641.25
2018-07-11T11:04:06.713Z,630.00
2018-07-11T11:05:06.664Z,607.50
2018-07-11T11:06:06.664Z,585.00
2018-07-11T11:07:06.638Z,568.12
2018-07-11T11:08:06.653Z,556.88
2018-07-11T11:09:06.630Z,562.50
2018-07-11T11:10:06.635Z,568.12
2018-07-11T11:11:06.604Z,568.12
2018-07-11T11:12:06.643Z,568.12
2018-07-11T11:13:06.579Z,556.88
2018-07-11T11:14:06.528Z,551.25
2018-07-11T11:15:06.577Z,540.00
2018-07-11T11:16:06.546Z,528.75
2018-07-11T11:17:06.535Z,511.88
2018-07-11T11:18:06.524Z,483.75
2018-07-11T11:19:06.527Z,461.25
2018-07-11T11:20:06.537Z,450.00
2018-07-11T11:21:06.453Z,438.75
2018-07-11T11:22:06.491Z,438.75
2018-07-11T11:23:06.473Z,461.25
2018-07-11T11:24:06.466Z,506.25
2018-07-11T11:25:06.511Z,556.88
2018-07-11T11:26:06.439Z,618.75
2018-07-11T11:27:06.430Z,680.62
2018-07-11T11:28:06.427Z,708.75
2018-07-11T11:29:06.371Z,708.75
2018-07-11T11:30:06.532Z,691.88
2018-07-11T11:31:06.394Z,675.00
2018-07-11T11:32:06.385Z,652.50
2018-07-11T11:33:06.370Z,630.00
2018-07-11T11:34:06.311Z,601.88
2018-07-11T11:35:06.372Z,579.38
2018-07-11T11:36:06.297Z,573.75
2018-07-11T11:37:06.326Z,573.75
2018-07-11T11:38:06.320Z,573.75
2018-07-11T11:39:06.302Z,562.50
2018-07-11T11:40:06.317Z,540.00
2018-07-11T11:41:06.306Z,545.62
2018-07-11T11:42:06.421Z,562.50
2018-07-11T11:43:06.267Z,562.50
2018-07-11T11:44:06.210Z,562.50
2018-07-11T11:45:06.409Z,579.38
2018-07-11T11:46:06.253Z,624.38
2018-07-11T11:47:06.222Z,624.38
2018-07-11T11:48:06.217Z,630.00
2018-07-11T11:49:06.163Z,596.25
2018-07-11T11:50:06.205Z,568.12
2018-07-11T11:51:06.133Z,528.75
2018-07-11T11:52:06.183Z,511.88
2018-07-11T11:53:06.159Z,500.62
2018-07-11T11:54:06.157Z,506.25
2018-07-11T11:55:06.234Z,523.12
2018-07-11T11:56:06.124Z,540.00
2018-07-11T11:57:06.117Z,545.62
2018-07-11T11:58:06.069Z,540.00
2018-07-11T11:59:06.096Z,506.25
2018-07-11T12:00:06.130Z,478.12
2018-07-11T12:01:06.076Z,466.88
2018-07-11T12:02:06.060Z,444.38
2018-07-11T12:03:06.049Z,427.50
2018-07-11T12:04:05.998Z,416.25
2018-07-11T12:05:06.063Z,399.38
2018-07-11T12:06:06.033Z,388.12
2018-07-11T12:07:06.056Z,376.88
2018-07-11T12:08:05.999Z,360.00
2018-07-11T12:09:05.995Z,354.38
2018-07-11T12:10:06.003Z,354.38
2018-07-11T12:11:05.966Z,354.38
2018-07-11T12:12:05.970Z,360.00
2018-07-11T12:13:05.952Z,376.88
2018-07-11T12:14:05.951Z,399.38
2018-07-11T12:15:05.965Z,421.88
2018-07-11T12:16:05.920Z,450.00
2018-07-11T12:17:05.897Z,478.12
2018-07-11T12:18:05.894Z,500.62
2018-07-11T12:19:05.888Z,523.12
2018-07-11T12:20:05.911Z,545.62
2018-07-11T12:21:05.894Z,562.50
2018-07-11T12:22:05.852Z,579.38
2018-07-11T12:23:05.842Z,590.62
2018-07-11T12:24:05.830Z,596.25
2018-07-11T12:25:05.818Z,607.50
2018-07-11T12:26:05.829Z,601.88
2018-07-11T12:27:05.808Z,601.88
2018-07-11T12:28:05.801Z,607.50
2018-07-11T12:29:05.773Z,613.12
2018-07-11T12:30:05.768Z,635.62
2018-07-11T12:31:05.790Z,669.38
2018-07-11T12:32:05.746Z,708.75
2018-07-11T12:33:05.738Z,736.88
2018-07-11T12:34:05.742Z,748.12
2018-07-11T12:35:05.720Z,742.50
2018-07-11T12:36:05.739Z,742.50
2018-07-11T12:37:05.690Z,759.38
2018-07-11T12:38:05.657Z,753.75
2018-07-11T12:39:05.667Z,742.50
2018-07-11T12:40:05.668Z,714.38
2018-07-11T12:41:05.629Z,680.62
2018-07-11T12:42:05.602Z,646.88
2018-07-11T12:43:05.640Z,630.00
2018-07-11T12:44:05.707Z,596.25